Time;durP1;ratioP1;P1;durP2;ratioP2;P2;SDS_P1;SDS_P2;PMS_P1;PMS_P2;Temp;Humidity;BMP_temperature;BMP_pressure;BME280_temperature;BME280_humidity;BME280_pressure;Samples;Min_cycle;Max_cycle;Signal;HPM_P1;HPM_P2
2021/10/06 00:01:47;;;;;;;4.53;4.32;;;;;;;10.52;88.03;100553.84;4390248;32;20678;-67
2021/10/06 00:04:13;;;;;;;6.85;6.55;;;;;;;10.51;87.67;100556.56;4396397;32;20100;-67
2021/10/06 00:06:38;;;;;;;4.50;4.30;;;;;;;10.58;87.48;100556.16;4390641;32;20459;-67
2021/10/06 00:09:06;;;;;;;4.35;4.15;;;;;;;10.62;86.97;100558.59;4395231;32;20454;-68
2021/10/06 00:11:31;;;;;;;4.40;4.20;;;;;;;10.64;87.20;100560.19;4377135;32;20115;-67
2021/10/06 00:13:56;;;;;;;4.78;4.57;;;;;;;10.63;86.45;100560.31;4396582;32;20073;-67
2021/10/06 00:16:22;;;;;;;5.60;5.40;;;;;;;10.56;86.65;100551.91;4391955;32;20587;-68
2021/10/06 00:18:47;;;;;;;4.50;4.30;;;;;;;10.59;86.92;100562.25;4392824;32;20072;-67
2021/10/06 00:21:12;;;;;;;5.75;5.53;;;;;;;9.55;86.97;100401.66;4379008;32;20568;-67
2021/10/06 00:23:38;;;;;;;4.37;4.18;;;;;;;10.44;87.19;100574.38;4381438;32;20440;-67
2021/10/06 00:26:04;;;;;;;4.40;4.20;;;;;;;10.36;86.85;100568.72;4380038;32;20162;-67
2021/10/06 00:28:29;;;;;;;4.50;4.30;;;;;;;10.33;87.04;100572.34;4390910;32;20873;-67
2021/10/06 00:30:55;;;;;;;4.32;4.12;;;;;;;10.30;87.83;100574.28;4367672;32;20069;-67
2021/10/06 00:33:21;;;;;;;5.95;5.65;;;;;;;10.33;87.36;100593.34;4379786;32;20065;-67
2021/10/06 00:35:46;;;;;;;4.45;4.25;;;;;;;10.20;87.98;100594.88;4377666;32;20732;-68
2021/10/06 00:38:11;;;;;;;5.20;5.00;;;;;;;10.15;88.45;100575.91;4386071;32;20748;-68
2021/10/06 00:40:37;;;;;;;4.80;4.60;;;;;;;10.11;89.12;100575.22;4397374;32;20096;-68
2021/10/06 00:43:02;;;;;;;4.60;4.40;;;;;;;10.11;88.60;100575.22;4401346;32;20739;-68
2021/10/06 00:45:27;;;;;;;4.65;4.45;;;;;;;10.08;89.35;100583.25;4383654;32;20444;-68
2021/10/06 00:47:53;;;;;;;4.30;4.10;;;;;;;10.00;88.97;100582.78;4381053;32;20084;-68
2021/10/06 00:50:18;;;;;;;6.00;5.70;;;;;;;9.89;89.77;100585.13;4365624;32;20087;-67
2021/10/06 00:52:47;;;;;;;4.37;4.18;;;;;;;9.93;89.63;100584.06;4379722;32;20079;-68
2021/10/06 00:55:13;;;;;;;4.40;4.20;;;;;;;9.85;90.72;100580.97;4386257;32;20069;-68
2021/10/06 00:57:39;;;;;;;4.43;4.22;;;;;;;9.87;89.91;100589.59;4396426;32;20573;-68
2021/10/06 01:00:05;;;;;;;4.37;4.18;;;;;;;9.87;90.23;100587.00;4379425;32;20580;-67
2021/10/06 01:02:30;;;;;;;4.40;4.20;;;;;;;9.04;90.39;100450.56;4395638;32;20088;-68
2021/10/06 01:04:55;;;;;;;4.20;4.00;;;;;;;9.84;90.67;100592.38;4380312;32;20629;-68
2021/10/06 01:07:21;;;;;;;6.45;6.15;;;;;;;9.86;90.31;100596.63;4375890;32;20064;-67
2021/10/06 01:09:46;;;;;;;4.25;4.05;;;;;;;9.82;90.68;100595.06;4395296;32;20064;-68
2021/10/06 01:12:11;;;;;;;5.97;5.68;;;;;;;9.79;90.79;100609.19;4393232;32;20072;-68
2021/10/06 01:14:37;;;;;;;4.50;4.30;;;;;;;9.78;90.74;100617.09;4393514;32;20084;-68
2021/10/06 01:17:02;;;;;;;4.43;4.22;;;;;;;9.77;90.74;100600.53;4390214;32;20594;-68
2021/10/06 01:19:28;;;;;;;4.75;4.55;;;;;;;9.76;91.01;100606.72;4381486;32;20061;-68
2021/10/06 01:21:54;;;;;;;4.30;4.10;;;;;;;9.71;90.96;100613.13;4375884;32;20076;-69
2021/10/06 01:24:20;;;;;;;4.10;3.90;;;;;;;9.69;91.98;100609.72;4382617;32;20494;-69
2021/10/06 01:26:45;;;;;;;4.28;4.07;;;;;;;9.68;91.77;100611.50;4382610;32;20175;-70
2021/10/06 01:29:11;;;;;;;5.85;5.57;;;;;;;9.69;91.57;100628.06;4382126;32;20076;-69
2021/10/06 01:31:36;;;;;;;4.30;4.10;;;;;;;9.58;91.76;100608.50;4375875;32;20095;-69
2021/10/06 01:34:01;;;;;;;4.50;4.30;;;;;;;9.67;91.62;100629.91;4391229;32;20125;-69
2021/10/06 01:36:27;;;;;;;5.45;5.25;;;;;;;9.69;91.52;100628.06;4398586;32;20092;-69
2021/10/06 01:38:52;;;;;;;4.30;4.10;;;;;;;9.72;90.86;100628.78;4390133;32;20549;-69
2021/10/06 01:41:17;;;;;;;5.65;5.45;;;;;;;9.64;90.71;100630.94;4387637;32;20077;-67
2021/10/06 01:43:43;;;;;;;4.43;4.22;;;;;;;9.63;91.36;100639.69;4376244;32;21274;-68
2021/10/06 01:46:08;;;;;;;4.45;4.25;;;;;;;9.44;91.82;100610.94;4377937;32;20682;-67
2021/10/06 01:48:33;;;;;;;4.28;4.07;;;;;;;9.64;91.75;100635.28;4366441;32;20179;-68
2021/10/06 01:50:59;;;;;;;4.95;4.40;;;;;;;9.65;91.46;100637.84;4397639;32;20552;-68
2021/10/06 01:53:34;;;;;;;6.25;5.95;;;;;;;9.61;92.29;100636.31;4392566;32;20079;-67
2021/10/06 01:55:59;;;;;;;4.40;4.20;;;;;;;9.65;92.28;100639.63;4406183;32;20095;-67
2021/10/06 01:58:24;;;;;;;5.85;5.60;;;;;;;9.71;91.37;100634.91;4388924;32;20065;-68
2021/10/06 02:00:50;;;;;;;4.30;4.10;;;;;;;9.74;91.61;100639.16;4384260;32;20097;-67
2021/10/06 02:03:15;;;;;;;6.05;5.75;;;;;;;9.71;91.28;100636.69;4379310;32;20925;-68
2021/10/06 02:05:40;;;;;;;4.20;4.00;;;;;;;9.47;91.29;100589.81;4388787;32;20084;-68
2021/10/06 02:08:06;;;;;;;4.40;4.20;;;;;;;9.76;91.09;100643.41;4374534;32;20076;-67
2021/10/06 02:10:35;;;;;;;4.28;4.07;;;;;;;9.71;90.37;100632.31;4372013;32;21415;-68
2021/10/06 02:13:01;;;;;;;4.37;4.18;;;;;;;9.76;90.45;100634.69;4407767;32;21067;-67
2021/10/06 02:15:26;;;;;;;4.93;4.72;;;;;;;9.89;90.12;100643.66;4400982;32;20215;-67
2021/10/06 02:17:52;;;;;;;4.15;3.95;;;;;;;9.82;89.99;100641.41;4369953;32;20159;-67
2021/10/06 02:20:17;;;;;;;5.82;5.57;;;;;;;9.76;89.72;100632.06;4387307;32;20197;-68
2021/10/06 02:22:42;;;;;;;4.50;4.30;;;;;;;9.71;89.94;100631.47;4378772;32;20191;-68
2021/10/06 02:25:08;;;;;;;4.37;4.18;;;;;;;9.73;90.82;100637.47;4394938;32;20171;-67
2021/10/06 02:27:33;;;;;;;4.20;4.00;;;;;;;9.68;90.52;100642.06;4364757;32;20147;-70
2021/10/06 02:29:59;;;;;;;4.20;4.00;;;;;;;9.74;90.50;100639.16;4381849;32;20120;-68
2021/10/06 02:32:24;;;;;;;5.60;5.40;;;;;;;9.77;90.98;100639.00;4388866;32;20937;-68
2021/10/06 02:34:49;;;;;;;4.28;4.07;;;;;;;9.89;90.18;100646.25;4383882;32;20429;-67
2021/10/06 02:37:15;;;;;;;5.70;5.47;;;;;;;9.96;89.62;100641.53;4373631;32;20103;-67
2021/10/06 02:39:40;;;;;;;4.40;4.20;;;;;;;10.12;88.74;100652.09;4385630;32;20061;-68
2021/10/06 02:42:05;;;;;;;4.90;4.50;;;;;;;10.18;88.17;100654.41;4385452;32;20574;-68
2021/10/06 02:44:31;;;;;;;4.40;4.20;;;;;;;10.22;87.72;100650.72;4383737;32;20385;-68
2021/10/06 02:46:56;;;;;;;4.60;4.40;;;;;;;10.19;87.61;100648.25;4379419;32;20077;-68
2021/10/06 02:49:22;;;;;;;8.80;6.57;;;;;;;10.25;87.30;100647.94;4389493;32;20394;-68
2021/10/06 02:51:48;;;;;;;4.22;4.03;;;;;;;10.27;87.08;100658.38;4379112;32;20092;-68
2021/10/06 02:54:13;;;;;;;4.28;4.07;;;;;;;10.21;86.81;100659.53;4394137;32;20457;-68
2021/10/06 02:56:38;;;;;;;4.20;4.00;;;;;;;10.13;87.78;100657.28;4366916;32;20084;-68
2021/10/06 02:59:04;;;;;;;4.40;4.20;;;;;;;10.08;87.29;100658.44;4380404;32;20148;-68
2021/10/06 03:01:29;;;;;;;4.50;4.30;;;;;;;10.14;87.24;100659.00;4362025;32;20085;-68
2021/10/06 03:03:55;;;;;;;4.30;4.10;;;;;;;9.99;87.76;100644.88;4390199;32;20212;-68
2021/10/06 03:06:20;;;;;;;5.72;5.53;;;;;;;9.99;87.37;100655.34;4394066;32;20080;-68
2021/10/06 03:08:46;;;;;;;4.28;4.07;;;;;;;9.47;87.59;100573.28;4398859;32;20076;-67
2021/10/06 03:11:12;;;;;;;5.62;5.37;;;;;;;9.82;87.72;100644.03;4366641;32;20065;-65
2021/10/06 03:13:38;;;;;;;4.30;4.10;;;;;;;9.85;88.51;100657.00;4405115;32;20062;-68
2021/10/06 03:16:03;;;;;;;4.28;4.07;;;;;;;9.84;88.06;100673.63;4380209;32;20073;-68
2021/10/06 03:18:29;;;;;;;4.82;4.53;;;;;;;9.84;88.41;100658.75;4398815;32;20887;-68
2021/10/06 03:20:54;;;;;;;4.30;4.10;;;;;;;9.92;87.69;100663.59;4380612;32;20077;-68
2021/10/06 03:23:20;;;;;;;5.95;5.68;;;;;;;9.89;87.52;100656.75;4366083;32;20065;-68
2021/10/06 03:25:46;;;;;;;4.30;4.10;;;;;;;9.86;88.34;100656.91;4359984;32;20622;-69
2021/10/06 03:28:11;;;;;;;4.30;4.10;;;;;;;9.92;87.44;100651.38;4395566;32;20069;-69
2021/10/06 03:30:37;;;;;;;4.25;4.05;;;;;;;9.93;87.51;100666.16;4377157;32;20072;-69
2021/10/06 03:33:02;;;;;;;4.28;4.07;;;;;;;9.91;87.93;100657.53;4396308;32;20467;-69
2021/10/06 03:35:28;;;;;;;4.78;4.57;;;;;;;9.97;87.22;100672.94;4389780;32;20388;-69
2021/10/06 03:37:53;;;;;;;4.35;4.15;;;;;;;10.02;87.13;100661.38;4403446;32;20549;-69
2021/10/06 03:40:19;;;;;;;4.40;4.20;;;;;;;10.12;86.55;100673.09;4389595;32;20723;-69
2021/10/06 03:42:44;;;;;;;4.40;4.20;;;;;;;10.12;86.51;100678.34;4387112;32;20112;-69
2021/10/06 03:45:10;;;;;;;4.40;4.20;;;;;;;10.16;86.06;100672.00;4391253;32;20072;-70
2021/10/06 03:47:36;;;;;;;4.65;4.45;;;;;;;10.14;85.67;100674.72;4406384;32;20507;-69
2021/10/06 03:50:02;;;;;;;4.43;4.22;;;;;;;10.09;85.75;100681.97;4383029;32;20059;-69
2021/10/06 03:52:27;;;;;;;5.00;4.80;;;;;;;10.08;85.45;100679.41;4385500;32;20085;-69
2021/10/06 03:54:53;;;;;;;4.30;4.10;;;;;;;9.96;85.82;100673.00;4385409;32;20081;-69
2021/10/06 03:57:18;;;;;;;6.20;5.90;;;;;;;9.93;86.62;100683.66;4362716;32;20105;-69
2021/10/06 03:59:43;;;;;;;4.47;4.28;;;;;;;9.86;86.66;100684.87;4361938;32;20069;-69
2021/10/06 04:02:09;;;;;;;4.47;4.28;;;;;;;9.80;87.02;100686.03;4358015;32;20555;-70
2021/10/06 04:04:34;;;;;;;4.28;4.07;;;;;;;9.79;87.19;100686.97;4366837;32;20076;-69
2021/10/06 04:06:59;;;;;;;4.25;4.05;;;;;;;9.80;87.14;100693.88;4389032;32;20094;-69
2021/10/06 04:09:25;;;;;;;6.35;6.05;;;;;;;9.85;87.11;100691.91;4361330;32;20096;-69
2021/10/06 04:11:50;;;;;;;4.32;4.12;;;;;;;9.97;87.24;100698.31;4375772;32;20895;-69
2021/10/06 04:14:16;;;;;;;5.82;5.57;;;;;;;10.02;86.77;100705.94;4367130;32;20068;-69
2021/10/06 04:16:41;;;;;;;4.50;4.30;;;;;;;9.13;86.61;100546.94;4380645;32;20092;-69
2021/10/06 04:19:06;;;;;;;4.15;3.95;;;;;;;10.11;86.29;100703.72;4390542;32;21081;-69
2021/10/06 04:21:32;;;;;;;4.45;4.25;;;;;;;10.16;85.27;100703.47;4384444;32;20083;-69
2021/10/06 04:23:57;;;;;;;4.60;4.40;;;;;;;10.20;85.39;100699.78;4387862;32;20092;-69
2021/10/06 04:26:22;;;;;;;6.47;6.18;;;;;;;10.24;85.34;100703.94;4376012;32;20081;-69
2021/10/06 04:28:48;;;;;;;4.25;4.05;;;;;;;10.25;85.17;100703.03;4376345;32;20103;-69
2021/10/06 04:31:14;;;;;;;6.22;5.93;;;;;;;10.15;84.79;100680.81;4389666;32;20139;-66
2021/10/06 04:33:39;;;;;;;4.28;4.07;;;;;;;10.30;84.28;100716.78;4383307;32;20097;-69
2021/10/06 04:36:05;;;;;;;4.35;4.15;;;;;;;10.32;83.95;100719.31;4371299;32;20600;-69
2021/10/06 04:38:30;;;;;;;4.15;3.95;;;;;;;10.36;84.22;100716.47;4366632;32;20092;-69
2021/10/06 04:40:56;;;;;;;4.50;4.30;;;;;;;10.40;83.61;100729.44;4378178;32;20083;-69
2021/10/06 04:43:21;;;;;;;6.07;5.78;;;;;;;10.39;83.84;100723.34;4368571;32;20065;-69
2021/10/06 04:45:46;;;;;;;4.18;3.97;;;;;;;10.43;83.14;100719.63;4378770;32;20240;-69
2021/10/06 04:48:12;;;;;;;5.85;5.57;;;;;;;10.43;83.52;100729.28;4361982;32;20081;-68
2021/10/06 04:50:37;;;;;;;4.35;4.15;;;;;;;10.51;83.00;100719.25;4382208;32;20620;-69
2021/10/06 04:53:03;;;;;;;4.20;4.00;;;;;;;10.52;83.18;100728.78;4390500;32;20065;-69
2021/10/06 04:55:29;;;;;;;4.60;4.40;;;;;;;10.52;82.76;100719.16;4375098;32;20954;-69
2021/10/06 04:57:54;;;;;;;4.40;4.20;;;;;;;10.38;82.53;100687.53;4379451;32;20105;-69
2021/10/06 05:00:20;;;;;;;5.10;4.90;;;;;;;10.55;82.76;100723.41;4373548;32;20861;-69
2021/10/06 05:02:45;;;;;;;4.10;3.90;;;;;;;10.54;82.65;100727.81;4383482;32;20775;-69
2021/10/06 05:05:10;;;;;;;4.20;4.00;;;;;;;10.49;82.35;100719.31;4383137;32;20081;-69
2021/10/06 05:07:36;;;;;;;4.35;4.15;;;;;;;10.49;82.52;100727.19;4384006;32;20084;-69
2021/10/06 05:10:01;;;;;;;4.30;4.10;;;;;;;10.53;82.08;100730.50;4395491;32;20592;-69
2021/10/06 05:12:27;;;;;;;4.43;4.22;;;;;;;10.42;82.84;100731.03;4383869;32;20559;-69
2021/10/06 05:14:52;;;;;;;4.20;4.00;;;;;;;10.43;82.32;100732.75;4403496;32;20057;-69
2021/10/06 05:17:17;;;;;;;4.10;3.90;;;;;;;10.46;82.70;100742.22;4394968;32;20488;-69
2021/10/06 05:19:43;;;;;;;4.75;4.30;;;;;;;10.46;82.43;100732.56;4399273;32;20079;-69
2021/10/06 05:22:08;;;;;;;4.18;3.97;;;;;;;10.49;82.51;100742.94;4378254;32;20089;-69
2021/10/06 05:24:33;;;;;;;4.25;4.03;;;;;;;10.49;81.87;100728.97;4382050;32;20552;-69
2021/10/06 05:26:59;;;;;;;5.97;5.68;;;;;;;10.54;81.80;100732.19;4372355;32;20100;-69
2021/10/06 05:29:24;;;;;;;5.60;5.40;;;;;;;10.62;81.34;100730.00;4389281;32;20068;-69
2021/10/06 05:31:50;;;;;;;4.30;4.10;;;;;;;10.59;81.34;100732.81;4375251;32;20092;-70
2021/10/06 05:34:15;;;;;;;5.47;5.28;;;;;;;10.51;81.88;100727.94;4390732;32;20081;-71
2021/10/06 05:36:40;;;;;;;4.10;3.90;;;;;;;10.55;82.04;100745.25;4380370;32;20154;-70
2021/10/06 05:39:06;;;;;;;4.80;4.60;;;;;;;10.55;82.18;100752.28;4393751;32;20096;-70
2021/10/06 05:41:31;;;;;;;4.40;4.20;;;;;;;10.56;82.02;100756.56;4387323;32;20147;-68
2021/10/06 05:43:57;;;;;;;4.80;4.60;;;;;;;10.61;81.19;100754.56;4406345;32;20095;-70
2021/10/06 05:46:23;;;;;;;5.68;5.47;;;;;;;10.68;80.83;100753.31;4401709;32;20098;-68
2021/10/06 05:48:48;;;;;;;4.78;4.55;;;;;;;10.68;80.85;100753.31;4385360;32;20070;-68
2021/10/06 05:51:13;;;;;;;6.03;5.72;;;;;;;10.75;79.86;100746.00;4407594;32;20077;-67
2021/10/06 05:53:39;;;;;;;4.40;4.20;;;;;;;10.67;79.94;100749.00;4380126;32;20092;-67
2021/10/06 05:56:04;;;;;;;4.32;4.12;;;;;;;10.77;80.05;100752.00;4368841;32;20073;-67
2021/10/06 05:58:30;;;;;;;5.18;4.97;;;;;;;10.80;79.86;100756.25;4387981;32;20176;-69
2021/10/06 06:00:55;;;;;;;4.30;4.10;;;;;;;10.83;79.31;100763.97;4383460;32;20563;-67
2021/10/06 06:03:21;;;;;;;4.03;3.83;;;;;;;10.86;79.46;100753.28;4390848;32;20091;-68
2021/10/06 06:05:46;;;;;;;4.30;4.10;;;;;;;10.85;79.11;100764.75;4385186;32;20080;-68
2021/10/06 06:08:11;;;;;;;5.50;5.30;;;;;;;10.86;78.99;100758.53;4387820;32;20096;-68
2021/10/06 06:10:37;;;;;;;4.65;4.45;;;;;;;10.83;79.22;100746.44;4379679;32;20068;-68
2021/10/06 06:13:02;;;;;;;4.10;3.90;;;;;;;10.95;78.80;100766.78;4408337;32;20100;-69
2021/10/06 06:15:29;;;;;;;5.12;4.93;;;;;;;11.02;78.50;100776.97;4396379;32;20096;-69
2021/10/06 06:17:54;;;;;;;4.55;4.35;;;;;;;11.02;78.58;100755.97;4398926;32;20073;-68
2021/10/06 06:20:23;;;;;;;5.93;5.65;;;;;;;11.09;78.92;100766.06;4387279;32;20943;-68
2021/10/06 06:22:50;;;;;;;4.82;4.62;;;;;;;10.88;77.97;100723.41;4385307;32;20092;-68
2021/10/06 06:25:15;;;;;;;6.12;5.82;;;;;;;11.14;77.60;100773.69;4401274;32;20126;-68
2021/10/06 06:27:40;;;;;;;4.30;4.10;;;;;;;11.12;78.68;100772.91;4382173;32;20508;-68
2021/10/06 06:30:06;;;;;;;4.40;4.20;;;;;;;11.04;79.34;100775.09;4406349;32;20072;-68
2021/10/06 06:32:32;;;;;;;4.30;4.10;;;;;;;10.95;80.82;100785.16;4377956;32;20202;-68
2021/10/06 06:34:57;;;;;;;4.37;4.18;;;;;;;10.83;81.90;100783.19;4385850;32;20091;-68
2021/10/06 06:37:22;;;;;;;6.12;5.82;;;;;;;10.83;82.07;100790.22;4383020;32;20073;-68
2021/10/06 06:39:48;;;;;;;4.40;4.20;;;;;;;10.74;83.22;100781.03;4393333;32;20475;-68
2021/10/06 06:42:13;;;;;;;5.82;5.53;;;;;;;10.70;84.04;100785.56;4379724;32;20100;-68
2021/10/06 06:44:38;;;;;;;4.50;4.30;;;;;;;10.62;84.54;100784.28;4398779;32;20336;-67
2021/10/06 06:47:04;;;;;;;4.37;4.18;;;;;;;10.57;84.39;100795.88;4364605;32;20057;-68
2021/10/06 06:49:29;;;;;;;4.80;4.60;;;;;;;10.53;85.64;100803.97;4381461;32;20126;-68
2021/10/06 06:51:55;;;;;;;4.30;4.10;;;;;;;10.49;86.43;100794.56;4382090;32;20317;-67
2021/10/06 06:54:20;;;;;;;5.68;5.47;;;;;;;10.48;86.22;100805.97;4382783;32;20093;-68
2021/10/06 06:56:46;;;;;;;4.32;4.12;;;;;;;10.44;87.27;100809.69;4393308;32;20088;-68
2021/10/06 06:59:11;;;;;;;5.15;4.95;;;;;;;10.42;87.34;100814.16;4392278;32;20349;-68
2021/10/06 07:01:37;;;;;;;4.43;4.22;;;;;;;10.41;87.60;100808.06;4394016;32;20084;-68
2021/10/06 07:04:02;;;;;;;4.60;4.40;;;;;;;10.40;87.88;100829.13;4379560;32;20593;-68
2021/10/06 07:06:33;;;;;;;4.30;4.10;;;;;;;10.40;88.81;100826.50;4377092;32;20087;-67
2021/10/06 07:08:58;;;;;;;4.30;4.10;;;;;;;10.35;88.81;100834.59;4386859;32;20138;-69
2021/10/06 07:11:24;;;;;;;6.18;5.87;;;;;;;10.32;89.52;100824.25;4380779;32;20320;-68
2021/10/06 07:13:49;;;;;;;4.37;4.18;;;;;;;10.23;90.43;100830.75;4410337;32;20081;-68
2021/10/06 07:16:14;;;;;;;6.25;5.95;;;;;;;10.27;90.27;100820.97;4386535;32;20084;-68
2021/10/06 07:18:41;;;;;;;4.28;4.07;;;;;;;10.24;90.58;100829.81;4396839;32;20075;-68
2021/10/06 07:21:06;;;;;;;4.25;4.05;;;;;;;10.21;90.83;100821.28;4379767;32;20073;-68
2021/10/06 07:23:31;;;;;;;4.85;4.43;;;;;;;10.25;91.34;100830.69;4389423;32;20190;-68
2021/10/06 07:25:57;;;;;;;4.30;4.10;;;;;;;10.28;91.03;100835.78;4379330;32;20065;-68
2021/10/06 07:28:22;;;;;;;5.97;5.68;;;;;;;9.83;91.47;100748.78;4388920;32;20083;-68
2021/10/06 07:30:47;;;;;;;4.20;4.00;;;;;;;10.36;90.97;100824.03;4382268;32;20337;-68
2021/10/06 07:33:13;;;;;;;5.47;5.28;;;;;;;10.44;91.53;100826.25;4391411;32;20650;-68
2021/10/06 07:35:39;;;;;;;4.57;4.37;;;;;;;10.48;90.61;100827.81;4383288;32;20069;-68
2021/10/06 07:38:05;;;;;;;4.20;4.00;;;;;;;10.64;90.00;100835.75;4397250;32;20150;-68
2021/10/06 07:40:30;;;;;;;4.30;4.10;;;;;;;10.72;89.92;100832.75;4370600;32;20627;-68
2021/10/06 07:42:55;;;;;;;4.22;4.03;;;;;;;10.82;89.48;100835.75;4383176;32;20057;-68
2021/10/06 07:45:21;;;;;;;6.03;5.72;;;;;;;10.89;88.84;100842.41;4377822;32;20053;-67
2021/10/06 07:47:46;;;;;;;4.35;4.15;;;;;;;10.98;87.94;100834.03;4399653;32;20084;-67
2021/10/06 07:50:11;;;;;;;5.28;5.07;;;;;;;10.99;87.32;100833.13;4373501;32;20099;-69
2021/10/06 07:52:37;;;;;;;4.32;4.12;;;;;;;11.02;86.64;100838.22;4388276;32;20070;-68
2021/10/06 07:55:05;;;;;;;4.28;4.07;;;;;;;10.98;86.17;100844.56;4397088;32;20210;-68
2021/10/06 07:57:30;;;;;;;4.30;4.10;;;;;;;10.95;85.65;100853.44;4392138;32;20068;-68
2021/10/06 07:59:55;;;;;;;4.40;4.20;;;;;;;10.96;86.82;100855.16;4395444;32;20210;-68
2021/10/06 08:02:21;;;;;;;6.07;5.78;;;;;;;10.90;87.04;100849.34;4379446;32;20080;-68
2021/10/06 08:04:46;;;;;;;4.20;4.00;;;;;;;10.93;86.25;100854.47;4371629;32;20233;-68
2021/10/06 08:07:13;;;;;;;17.77;16.90;;;;;;;10.96;86.70;100857.78;4282942;32;20362;-68
2021/10/06 08:09:39;;;;;;;4.18;3.97;;;;;;;10.92;86.33;100845.72;4372786;32;20064;-68
2021/10/06 08:12:04;;;;;;;4.72;4.53;;;;;;;10.90;86.99;100846.72;4396290;32;20554;-68
2021/10/06 08:14:29;;;;;;;4.40;4.20;;;;;;;10.91;86.55;100851.91;4384802;32;20138;-68
2021/10/06 08:16:55;;;;;;;4.40;4.20;;;;;;;11.00;86.34;100853.19;4386216;32;20099;-68
2021/10/06 08:19:20;;;;;;;5.78;5.55;;;;;;;11.13;86.07;100856.06;4379358;32;20079;-68
2021/10/06 08:21:47;;;;;;;4.35;4.15;;;;;;;11.18;85.50;100859.28;4392008;32;20069;-68
2021/10/06 08:24:12;;;;;;;4.95;4.75;;;;;;;11.20;84.56;100859.22;4399126;32;20693;-68
2021/10/06 08:26:37;;;;;;;4.22;4.03;;;;;;;11.27;84.27;100848.31;4392188;32;20139;-68
2021/10/06 08:29:03;;;;;;;4.87;4.68;;;;;;;11.46;83.97;100857.81;4387277;32;20068;-68
2021/10/06 08:31:28;;;;;;;4.72;4.53;;;;;;;11.71;82.18;100860.00;4396699;32;20096;-69
2021/10/06 08:33:53;;;;;;;4.40;4.20;;;;;;;11.84;80.06;100868.06;4393288;32;20474;-68
2021/10/06 08:36:19;;;;;;;5.80;5.55;;;;;;;12.14;80.14;100858.47;4379120;32;20548;-72
2021/10/06 08:38:44;;;;;;;4.47;4.28;;;;;;;12.20;78.95;100866.97;4380750;32;20118;-70
2021/10/06 08:41:09;;;;;;;5.50;5.25;;;;;;;12.23;79.58;100853.63;4387051;32;20081;-69
2021/10/06 08:43:35;;;;;;;4.57;4.37;;;;;;;12.26;78.12;100866.63;4393535;32;20084;-68
2021/10/06 08:46:01;;;;;;;4.30;4.10;;;;;;;12.24;78.31;100868.50;4391582;32;20496;-69
2021/10/06 08:48:27;;;;;;;5.97;5.68;;;;;;;12.22;78.59;100860.69;4377301;32;20085;-70
2021/10/06 08:50:53;;;;;;;4.70;4.50;;;;;;;12.11;77.58;100873.63;4378610;32;20096;-70
2021/10/06 08:53:18;;;;;;;6.12;5.82;;;;;;;12.12;77.90;100865.62;4367088;32;20168;-69
2021/10/06 08:55:43;;;;;;;4.50;4.30;;;;;;;11.96;76.92;100877.94;4372873;32;20661;-74
2021/10/06 08:58:09;;;;;;;4.87;4.68;;;;;;;11.02;77.83;100741.03;4393219;32;20150;-71
2021/10/06 09:00:53;;;;;;;4.40;4.20;;;;;;;11.92;78.53;100882.50;4375430;32;20718;-70
2021/10/06 09:03:26;;;;;;;6.15;5.85;;;;;;;11.87;78.40;100879.25;4391633;32;20534;-70
2021/10/06 09:06:08;;;;;;;4.40;4.20;;;;;;;10.75;78.10;100720.59;4390244;32;20072;-70
2021/10/06 09:08:34;;;;;;;4.80;4.60;;;;;;;11.57;77.99;100831.84;4361735;32;20073;-70
2021/10/06 09:11:00;;;;;;;4.18;3.97;;;;;;;12.08;77.13;100890.41;4383656;32;20100;-70
2021/10/06 09:13:28;;;;;;;5.62;5.35;;;;;;;12.18;76.91;100893.38;4403883;32;20072;-70
2021/10/06 09:15:53;;;;;;;4.53;4.32;;;;;;;12.20;76.70;100898.56;4384210;32;20139;-70
2021/10/06 09:18:23;;;;;;;6.18;5.87;;;;;;;12.17;76.48;100904.84;4405597;32;20118;-70
2021/10/06 09:20:48;;;;;;;4.47;4.28;;;;;;;12.08;76.06;100906.19;4381725;32;20187;-71
2021/10/06 09:23:19;;;;;;;5.37;5.18;;;;;;;12.09;76.81;100909.69;4390226;32;20077;-71
2021/10/06 09:25:48;;;;;;;4.30;4.10;;;;;;;12.12;77.02;100912.13;4385864;32;20077;-70
2021/10/06 09:28:24;;;;;;;5.15;4.95;;;;;;;12.23;76.55;100904.50;4377531;32;20598;-70
2021/10/06 09:31:01;;;;;;;4.60;4.40;;;;;;;12.35;75.68;100893.28;4402039;32;20606;-70
2021/10/06 09:33:37;;;;;;;6.25;5.95;;;;;;;12.60;75.20;100923.47;4381802;32;20093;-70
2021/10/06 09:36:08;;;;;;;4.60;4.40;;;;;;;12.46;74.79;100899.72;4390407;32;20591;-70
2021/10/06 09:38:39;;;;;;;4.90;4.60;;;;;;;12.56;75.75;100922.78;4378790;32;20061;-70
2021/10/06 09:41:04;;;;;;;4.50;4.30;;;;;;;12.45;77.02;100930.47;4394205;32;20075;-69
2021/10/06 09:43:29;;;;;;;4.60;4.40;;;;;;;12.18;77.92;100952.09;4387504;32;20065;-70
2021/10/06 09:45:56;;;;;;;4.40;4.20;;;;;;;12.03;80.26;100936.31;4389406;32;20493;-71
2021/10/06 09:48:22;;;;;;;5.85;5.60;;;;;;;11.90;80.91;100950.13;4392630;32;20091;-71
2021/10/06 09:50:49;;;;;;;4.55;4.35;;;;;;;11.83;81.28;100942.63;4393624;32;20339;-70
2021/10/06 09:53:19;;;;;;;6.50;6.20;;;;;;;11.78;81.97;100945.47;4394811;32;20691;-70
2021/10/06 09:55:48;;;;;;;4.65;4.45;;;;;;;11.70;82.80;100945.87;4390614;32;20980;-71
2021/10/06 09:58:13;;;;;;;6.15;5.85;;;;;;;11.53;82.86;100961.72;4393499;32;20099;-71
2021/10/06 10:00:40;;;;;;;4.60;4.40;;;;;;;11.61;83.40;100959.53;4385178;32;20934;-70
2021/10/06 10:03:06;;;;;;;4.43;4.22;;;;;;;11.78;83.35;100967.38;4368296;32;20077;-72
2021/10/06 10:05:33;;;;;;;4.70;4.50;;;;;;;11.66;83.97;100961.91;4376508;32;21288;-70
2021/10/06 10:07:59;;;;;;;4.50;4.30;;;;;;;11.77;84.23;100954.31;4371282;32;20224;-72
2021/10/06 10:10:24;;;;;;;6.40;6.10;;;;;;;12.00;84.00;100954.91;4370877;32;20068;-67
2021/10/06 10:12:49;;;;;;;4.28;4.07;;;;;;;12.19;83.27;100960.88;4405349;32;20406;-67
2021/10/06 10:15:16;;;;;;;6.35;6.05;;;;;;;12.31;82.15;100964.59;4379839;32;20087;-66
2021/10/06 10:17:41;;;;;;;4.50;4.30;;;;;;;12.37;81.46;100969.53;4384664;32;20306;-67
2021/10/06 10:20:10;;;;;;;4.53;4.32;;;;;;;12.30;80.58;100971.63;4374222;32;20069;-68
2021/10/06 10:22:40;;;;;;;4.78;4.57;;;;;;;12.40;80.71;100966.72;4381592;32;20179;-68
2021/10/06 10:25:18;;;;;;;4.50;4.30;;;;;;;12.41;80.27;100978.94;4383040;32;20144;-69
2021/10/06 10:28:17;;;;;;;4.53;4.30;;;;;;;12.55;81.21;100979.03;4395255;32;20795;-68
2021/10/06 10:30:55;;;;;;;4.60;4.40;;;;;;;12.70;81.44;100974.66;4398038;32;20159;-68
2021/10/06 10:33:42;;;;;;;6.07;5.78;;;;;;;12.79;81.16;100983.84;4407754;32;20065;-68
2021/10/06 10:36:34;;;;;;;4.50;4.30;;;;;;;12.77;80.66;100991.84;4390059;32;20884;-68
2021/10/06 10:39:00;;;;;;;4.40;4.20;;;;;;;12.97;80.51;100979.31;4390575;32;20107;-68
2021/10/06 10:41:47;;;;;;;6.12;5.82;;;;;;;12.99;81.15;100993.25;4374256;32;20099;-68
2021/10/06 10:44:13;;;;;;;5.70;5.47;;;;;;;12.83;80.40;100992.41;4382336;32;20075;-65
2021/10/06 10:47:01;;;;;;;4.55;4.35;;;;;;;12.73;80.41;100987.69;4380902;32;20399;-66
2021/10/06 10:49:33;;;;;;;5.95;5.65;;;;;;;12.72;81.16;100995.66;4405634;32;20197;-67
2021/10/06 10:51:59;;;;;;;4.80;4.60;;;;;;;12.76;80.56;100991.91;4393962;32;20077;-66
2021/10/06 10:54:27;;;;;;;6.35;6.05;;;;;;;12.80;81.17;101005.75;4388012;32;20073;-66
2021/10/06 10:56:53;;;;;;;4.40;4.20;;;;;;;12.95;81.00;101008.38;4401811;32;20133;-68
2021/10/06 10:59:22;;;;;;;5.95;5.65;;;;;;;12.76;81.00;101008.56;4392787;32;20286;-66
2021/10/06 11:01:55;;;;;;;4.50;4.30;;;;;;;12.93;81.95;101004.97;4391237;32;20065;-68
2021/10/06 11:04:28;;;;;;;5.97;5.68;;;;;;;12.87;82.42;101009.72;4399875;32;20085;-66
2021/10/06 11:07:17;;;;;;;4.57;4.37;;;;;;;12.94;82.88;101011.09;4398314;32;20447;-67
2021/10/06 11:09:47;;;;;;;4.50;4.30;;;;;;;12.88;82.34;101014.06;4393513;32;20226;-66
2021/10/06 11:12:12;;;;;;;5.70;5.47;;;;;;;12.89;82.10;101015.75;4386504;32;20084;-68
2021/10/06 11:14:42;;;;;;;4.70;4.50;;;;;;;12.56;82.75;100980.72;4404976;32;20176;-66
2021/10/06 11:17:12;;;;;;;4.53;4.32;;;;;;;12.75;82.74;101017.41;4389995;32;20151;-66
2021/10/06 11:19:48;;;;;;;4.50;4.30;;;;;;;12.68;82.60;101015.19;4390619;32;20084;-66
2021/10/06 11:22:22;;;;;;;5.97;5.68;;;;;;;12.78;82.60;101019.84;4393414;32;20247;-70
2021/10/06 11:24:52;;;;;;;4.35;4.15;;;;;;;12.48;83.44;101017.16;4407948;32;20111;-72